Time;durP1;ratioP1;P1;durP2;ratioP2;P2;SDS_P1;SDS_P2;PMS_P1;PMS_P2;Temp;Humidity;BMP_temperature;BMP_pressure;BME280_temperature;BME280_humidity;BME280_pressure;Samples;Min_cycle;Max_cycle;Signal;HPM_P1;HPM_P2
2023/01/09 00:01:14;;;;;;;;;;;8.30;99.90;;;;;;5078602;28;19928;-63
2023/01/09 00:03:42;;;;;;;;;;;8.30;99.90;;;;;;5072169;28;19968;-63
2023/01/09 00:06:11;;;;;;;;;;;8.30;99.90;;;;;;5072230;28;19969;-61
2023/01/09 00:08:38;;;;;;;;;;;8.30;99.90;;;;;;5071937;28;20457;-60
2023/01/09 00:11:06;;;;;;;;;;;8.30;99.90;;;;;;5071655;28;19975;-61
2023/01/09 00:13:34;;;;;;;;;;;8.30;99.90;;;;;;5072311;28;20348;-61
2023/01/09 00:16:02;;;;;;;;;;;8.30;99.90;;;;;;5072044;28;19924;-61
2023/01/09 00:18:29;;;;;;;;;;;8.30;99.90;;;;;;5071627;28;19925;-60
2023/01/09 00:20:59;;;;;;;;;;;8.30;99.90;;;;;;5083989;28;19949;-60
2023/01/09 00:23:28;;;;;;;;;;;8.30;99.90;;;;;;5085636;28;20019;-61
2023/01/09 00:26:03;;;;;;;;;;;8.40;99.90;;;;;;5063348;28;20394;-61
2023/01/09 00:28:31;;;;;;;;;;;8.40;99.90;;;;;;5071690;28;19931;-61
2023/01/09 00:31:00;;;;;;;;;;;8.40;99.90;;;;;;5071408;28;20011;-60
2023/01/09 00:33:29;;;;;;;;;;;8.40;99.90;;;;;;5071716;28;19931;-60
2023/01/09 00:35:56;;;;;;;;;;;8.40;99.90;;;;;;5070619;28;20022;-61
2023/01/09 00:38:24;;;;;;;;;;;8.30;99.90;;;;;;5086824;28;20620;-60
2023/01/09 00:40:54;;;;;;;;;;;8.30;99.90;;;;;;5091593;28;20014;-60
2023/01/09 00:43:23;;;;;;;;;;;8.30;99.90;;;;;;5091970;28;19924;-61
2023/01/09 00:45:51;;;;;;;;;;;8.30;99.90;;;;;;5091835;28;19930;-61
2023/01/09 00:48:25;;;;;;;;;;;8.40;99.90;;;;;;5091593;28;19928;-61
2023/01/09 00:50:53;;;;;;;;;;;8.40;99.90;;;;;;5088489;28;19946;-60
2023/01/09 00:53:23;;;;;;;;;;;8.40;99.90;;;;;;5072241;28;19989;-61
2023/01/09 00:56:02;;;;;;;;;;;8.30;99.90;;;;;;5071313;28;19932;-60
2023/01/09 00:58:29;;;;;;;;;;;8.40;99.90;;;;;;5071696;28;20576;-61
2023/01/09 01:00:57;;;;;;;;;;;8.40;99.90;;;;;;5070726;28;19931;-61
2023/01/09 01:03:25;;;;;;;;;;;8.40;99.90;;;;;;5071373;28;19929;-61
2023/01/09 01:08:38;;;;;;;;;;;8.40;99.90;;;;;;5070710;28;19979;-61
2023/01/09 01:11:09;;;;;;;;;;;8.40;99.90;;;;;;5087567;28;20316;-61
2023/01/09 01:13:37;;;;;;;;;;;8.40;99.90;;;;;;5090254;28;20340;-61
2023/01/09 01:16:05;;;;;;;;;;;8.40;99.90;;;;;;5091618;28;20019;-61
2023/01/09 01:18:33;;;;;;;;;;;8.60;99.90;;;;;;5091311;28;19985;-61
2023/01/09 01:21:01;;;;;;;;;;;8.60;99.90;;;;;;5090649;28;19924;-61
2023/01/09 01:23:28;;;;;;;;;;;8.60;99.90;;;;;;5074663;28;19952;-60
2023/01/09 01:25:56;;;;;;;;;;;8.60;99.90;;;;;;5070866;28;19924;-60
2023/01/09 01:28:25;;;;;;;;;;;8.60;99.90;;;;;;5071259;28;19924;-61
2023/01/09 01:30:53;;;;;;;;;;;8.60;99.90;;;;;;5070476;28;19975;-60
2023/01/09 01:33:21;;;;;;;;;;;8.70;99.90;;;;;;5071282;28;19924;-61
2023/01/09 01:35:49;;;;;;;;;;;8.70;99.90;;;;;;5071138;28;19946;-61
2023/01/09 01:38:16;;;;;;;;;;;8.60;99.90;;;;;;5070930;28;20532;-61
2023/01/09 01:40:44;;;;;;;;;;;8.60;99.90;;;;;;5070073;28;19930;-61
2023/01/09 01:43:12;;;;;;;;;;;8.70;99.90;;;;;;5070945;28;19968;-61
2023/01/09 01:45:41;;;;;;;;;;;8.60;99.90;;;;;;5071055;28;20015;-61
2023/01/09 01:48:10;;;;;;;;;;;8.70;99.90;;;;;;5073637;28;20382;-61
2023/01/09 01:50:40;;;;;;;;;;;8.70;99.90;;;;;;5073705;28;19931;-61
2023/01/09 01:53:11;;;;;;;;;;;8.70;99.90;;;;;;5074313;28;19924;-61
2023/01/09 01:55:39;;;;;;;;;;;8.70;99.90;;;;;;5067107;28;19924;-61
2023/01/09 01:58:09;;;;;;;;;;;8.90;99.90;;;;;;5074378;28;19924;-61
2023/01/09 02:00:38;;;;;;;;;;;8.90;99.90;;;;;;5073362;28;20370;-62
2023/01/09 02:03:07;;;;;;;;;;;8.90;99.90;;;;;;5074449;28;19928;-62
2023/01/09 02:05:36;;;;;;;;;;;8.90;99.90;;;;;;5074381;28;20386;-61
2023/01/09 02:08:04;;;;;;;;;;;8.90;99.90;;;;;;5074161;28;19997;-61
2023/01/09 02:10:32;;;;;;;;;;;8.80;99.90;;;;;;5085232;28;19957;-61
2023/01/09 02:13:00;;;;;;;;;;;8.80;99.90;;;;;;5074294;28;20031;-61
2023/01/09 02:15:29;;;;;;;;;;;8.80;99.90;;;;;;5074215;28;20015;-62
2023/01/09 02:18:18;;;;;;;;;;;8.80;99.90;;;;;;5074028;28;19936;-61
2023/01/09 02:20:50;;;;;;;;;;;8.80;99.90;;;;;;5073158;28;19928;-61
2023/01/09 02:23:33;;;;;;;;;;;8.70;99.90;;;;;;5073707;28;19925;-61
2023/01/09 02:26:18;;;;;;;;;;;8.60;99.90;;;;;;5071427;28;19924;-61
2023/01/09 02:28:57;;;;;;;;;;;8.60;99.90;;;;;;5054394;28;20317;-60
2023/01/09 02:31:27;;;;;;;;;;;8.60;99.90;;;;;;5053663;28;19925;-61
2023/01/09 02:34:00;;;;;;;;;;;8.70;99.90;;;;;;5065203;28;19932;-60
2023/01/09 02:36:31;;;;;;;;;;;8.60;99.90;;;;;;5074413;28;19929;-60
2023/01/09 02:39:05;;;;;;;;;;;8.50;99.90;;;;;;5074199;28;20023;-60
2023/01/09 02:41:36;;;;;;;;;;;8.50;99.90;;;;;;5073750;28;19968;-61
2023/01/09 02:44:17;;;;;;;;;;;8.40;99.90;;;;;;5074521;28;20011;-60
2023/01/09 02:46:46;;;;;;;;;;;8.30;99.90;;;;;;5074258;28;20015;-60
2023/01/09 02:49:16;;;;;;;;;;;8.20;99.90;;;;;;5074044;28;19924;-61
2023/01/09 02:51:49;;;;;;;;;;;8.20;99.90;;;;;;5073304;28;20363;-61
2023/01/09 02:54:23;;;;;;;;;;;8.10;99.90;;;;;;5074005;28;19929;-61
2023/01/09 02:57:01;;;;;;;;;;;8.10;99.90;;;;;;5074416;28;20034;-60
2023/01/09 02:59:33;;;;;;;;;;;8.10;99.90;;;;;;5072532;28;19989;-60
2023/01/09 03:02:12;;;;;;;;;;;8.10;99.90;;;;;;5074747;28;20027;-60
2023/01/09 03:04:43;;;;;;;;;;;8.20;99.90;;;;;;5073870;28;19925;-61
2023/01/09 03:07:14;;;;;;;;;;;8.20;99.90;;;;;;5073644;28;19924;-61
2023/01/09 03:09:42;;;;;;;;;;;8.20;99.90;;;;;;5072331;28;20296;-61
2023/01/09 03:12:13;;;;;;;;;;;8.10;99.90;;;;;;5073212;28;20401;-61
2023/01/09 03:14:44;;;;;;;;;;;7.90;99.90;;;;;;5073088;28;20006;-61
2023/01/09 03:17:14;;;;;;;;;;;8.00;99.90;;;;;;5073158;28;19935;-60
2023/01/09 03:19:42;;;;;;;;;;;7.90;99.90;;;;;;5084017;28;19924;-60
2023/01/09 03:22:11;;;;;;;;;;;7.90;99.90;;;;;;5093046;28;19924;-61
2023/01/09 03:24:39;;;;;;;;;;;8.00;99.90;;;;;;5076063;28;19924;-61
2023/01/09 03:27:07;;;;;;;;;;;8.00;99.90;;;;;;5072798;28;19924;-59
2023/01/09 03:29:36;;;;;;;;;;;7.90;99.90;;;;;;5071829;28;20016;-60
2023/01/09 03:32:04;;;;;;;;;;;7.90;99.90;;;;;;5072826;28;19956;-61
2023/01/09 03:34:33;;;;;;;;;;;8.00;99.90;;;;;;5072723;28;19932;-61
2023/01/09 03:37:00;;;;;;;;;;;7.90;99.90;;;;;;5081164;28;19930;-61
2023/01/09 03:39:28;;;;;;;;;;;7.90;99.90;;;;;;5092236;28;19930;-60
2023/01/09 03:41:56;;;;;;;;;;;7.80;99.90;;;;;;5081287;28;20286;-61
2023/01/09 03:44:24;;;;;;;;;;;7.90;99.90;;;;;;5072378;28;20415;-61
2023/01/09 03:46:51;;;;;;;;;;;7.80;99.90;;;;;;5072491;28;19935;-61
2023/01/09 03:49:20;;;;;;;;;;;7.90;99.90;;;;;;5071990;28;19925;-61
2023/01/09 03:51:49;;;;;;;;;;;7.80;99.90;;;;;;5071836;28;19996;-61
2023/01/09 03:54:17;;;;;;;;;;;7.80;99.90;;;;;;5077093;28;19928;-61
2023/01/09 03:56:44;;;;;;;;;;;7.70;99.90;;;;;;5072207;28;19931;-61
2023/01/09 03:59:12;;;;;;;;;;;7.70;99.90;;;;;;5071899;28;19924;-60
2023/01/09 04:01:40;;;;;;;;;;;7.70;99.90;;;;;;5071453;28;19931;-61
2023/01/09 04:04:08;;;;;;;;;;;7.70;99.90;;;;;;5072450;28;19982;-61
2023/01/09 04:06:35;;;;;;;;;;;7.70;99.90;;;;;;5072193;28;19963;-61
2023/01/09 04:09:04;;;;;;;;;;;7.70;99.90;;;;;;5071919;28;19931;-61
2023/01/09 04:11:32;;;;;;;;;;;7.70;99.90;;;;;;5071412;28;19933;-61
2023/01/09 04:14:00;;;;;;;;;;;7.80;99.90;;;;;;5072347;28;20015;-61
2023/01/09 04:16:27;;;;;;;;;;;7.80;99.90;;;;;;5071972;28;20348;-60
2023/01/09 04:18:55;;;;;;;;;;;7.90;99.90;;;;;;5071852;28;20342;-61
2023/01/09 04:21:23;;;;;;;;;;;7.90;99.90;;;;;;5075229;28;20388;-61
2023/01/09 04:23:50;;;;;;;;;;;7.80;99.90;;;;;;5082353;28;19924;-62
2023/01/09 04:26:19;;;;;;;;;;;7.90;99.90;;;;;;5072054;28;20083;-61
2023/01/09 04:28:47;;;;;;;;;;;8.00;99.90;;;;;;5071814;28;20471;-61
2023/01/09 04:31:15;;;;;;;;;;;7.90;99.90;;;;;;5071308;28;19924;-61
2023/01/09 04:33:42;;;;;;;;;;;8.00;99.90;;;;;;5071956;28;19925;-61
2023/01/09 04:36:10;;;;;;;;;;;7.90;99.90;;;;;;5075136;28;20015;-61
2023/01/09 04:38:38;;;;;;;;;;;7.90;99.90;;;;;;5091632;28;20631;-60
2023/01/09 04:41:05;;;;;;;;;;;8.00;99.90;;;;;;5091130;28;19931;-61
2023/01/09 04:43:34;;;;;;;;;;;8.00;99.90;;;;;;5091662;28;20037;-61
2023/01/09 04:46:02;;;;;;;;;;;8.00;99.90;;;;;;5090275;28;20014;-61
2023/01/09 04:48:30;;;;;;;;;;;8.00;99.90;;;;;;5091906;28;19931;-62
2023/01/09 04:50:58;;;;;;;;;;;8.00;99.90;;;;;;5071010;28;19936;-61
2023/01/09 04:53:26;;;;;;;;;;;8.00;99.90;;;;;;5071580;28;19925;-61
2023/01/09 04:55:53;;;;;;;;;;;7.90;99.90;;;;;;5071245;28;19924;-61
2023/01/09 04:58:21;;;;;;;;;;;7.80;99.90;;;;;;5071481;28;19924;-61
2023/01/09 05:00:51;;;;;;;;;;;7.80;99.90;;;;;;5070812;28;20353;-61
2023/01/09 05:03:19;;;;;;;;;;;8.00;99.90;;;;;;5071493;28;20421;-61
2023/01/09 05:05:46;;;;;;;;;;;7.80;99.90;;;;;;5071264;28;20015;-61
2023/01/09 05:08:14;;;;;;;;;;;7.70;99.90;;;;;;5071435;28;19931;-63
2023/01/09 05:10:42;;;;;;;;;;;7.50;99.90;;;;;;5070530;28;19932;-61
2023/01/09 05:13:09;;;;;;;;;;;7.50;99.90;;;;;;5071303;28;19935;-62
2023/01/09 05:15:37;;;;;;;;;;;7.50;99.90;;;;;;5071379;28;19930;-61
2023/01/09 05:18:06;;;;;;;;;;;7.40;99.90;;;;;;5071201;28;19966;-61
2023/01/09 05:20:34;;;;;;;;;;;7.30;99.90;;;;;;5070544;28;20437;-61
2023/01/09 05:23:01;;;;;;;;;;;7.20;99.90;;;;;;5081065;28;20382;-61
2023/01/09 05:25:29;;;;;;;;;;;7.20;99.90;;;;;;5075417;28;20039;-61
2023/01/09 05:27:57;;;;;;;;;;;7.10;99.90;;;;;;5072504;28;20431;-61
2023/01/09 05:30:24;;;;;;;;;;;7.10;99.90;;;;;;5073317;28;19924;-62
2023/01/09 05:32:52;;;;;;;;;;;6.90;99.90;;;;;;5074147;28;20480;-62
2023/01/09 05:35:21;;;;;;;;;;;6.90;99.90;;;;;;5071810;28;19970;-62
2023/01/09 05:37:49;;;;;;;;;;;6.90;99.90;;;;;;5062659;28;19935;-62
2023/01/09 05:40:17;;;;;;;;;;;7.00;99.90;;;;;;5065174;28;19931;-62
2023/01/09 05:42:45;;;;;;;;;;;7.00;99.90;;;;;;5068301;28;19976;-62
2023/01/09 05:45:12;;;;;;;;;;;6.90;99.90;;;;;;5068752;28;19973;-62
2023/01/09 05:47:40;;;;;;;;;;;6.90;99.90;;;;;;5068160;28;20023;-62
2023/01/09 05:50:08;;;;;;;;;;;6.90;99.90;;;;;;5070908;28;19939;-62
2023/01/09 05:52:38;;;;;;;;;;;6.90;99.90;;;;;;5117720;22;19930;-67
2023/01/09 05:55:06;;;;;;;;;;;6.90;99.90;;;;;;5111274;27;19927;-67
2023/01/09 05:57:34;;;;;;;;;;;6.80;99.90;;;;;;5111829;27;19963;-67
2023/01/09 06:00:01;;;;;;;;;;;6.70;99.90;;;;;;5109317;27;19953;-67
2023/01/09 06:02:29;;;;;;;;;;;6.70;99.90;;;;;;5108851;27;19924;-67
2023/01/09 06:04:57;;;;;;;;;;;6.70;99.90;;;;;;5111387;28;20300;-67
2023/01/09 06:07:25;;;;;;;;;;;6.60;99.90;;;;;;5111133;28;19930;-67
2023/01/09 06:09:54;;;;;;;;;;;6.60;99.90;;;;;;5101324;28;19927;-67
2023/01/09 06:12:21;;;;;;;;;;;6.60;99.90;;;;;;5106240;28;19928;-67
2023/01/09 06:14:49;;;;;;;;;;;6.50;99.90;;;;;;5110895;28;19930;-66
2023/01/09 06:17:17;;;;;;;;;;;6.50;99.90;;;;;;5111786;28;20018;-68
2023/01/09 06:19:44;;;;;;;;;;;6.50;99.90;;;;;;5108987;28;19932;-68
2023/01/09 06:22:12;;;;;;;;;;;6.50;99.90;;;;;;5106241;28;20034;-67
2023/01/09 06:24:40;;;;;;;;;;;6.50;99.90;;;;;;5105901;28;19927;-68
2023/01/09 06:27:09;;;;;;;;;;;6.50;99.90;;;;;;5108990;28;20022;-67
2023/01/09 06:29:36;;;;;;;;;;;6.50;99.90;;;;;;5106945;28;19934;-69
2023/01/09 06:32:04;;;;;;;;;;;6.50;99.90;;;;;;5107066;28;20019;-67
2023/01/09 06:34:32;;;;;;;;;;;6.50;99.90;;;;;;5115716;27;20392;-67
2023/01/09 06:37:00;;;;;;;;;;;6.60;99.90;;;;;;5118239;27;20371;-66
2023/01/09 06:39:27;;;;;;;;;;;6.60;99.90;;;;;;5113946;28;20022;-67
2023/01/09 06:41:55;;;;;;;;;;;6.60;99.90;;;;;;5114073;28;20423;-67
2023/01/09 06:44:24;;;;;;;;;;;6.60;99.90;;;;;;5114385;28;20034;-67
2023/01/09 06:46:52;;;;;;;;;;;6.60;99.90;;;;;;5101311;28;20202;-67
2023/01/09 06:49:22;;;;;;;;;;;6.60;99.90;;;;;;5093859;28;19924;-67
2023/01/09 06:51:50;;;;;;;;;;;6.60;99.90;;;;;;5092724;28;19927;-67
2023/01/09 06:54:18;;;;;;;;;;;6.60;99.90;;;;;;5099196;28;20014;-67
2023/01/09 06:56:46;;;;;;;;;;;6.60;99.90;;;;;;5094689;28;19924;-67
2023/01/09 06:59:13;;;;;;;;;;;6.60;99.90;;;;;;5101579;28;19931;-67
2023/01/09 07:01:42;;;;;;;;;;;6.60;99.90;;;;;;5092875;28;19924;-67
2023/01/09 07:04:10;;;;;;;;;;;6.60;99.90;;;;;;5093277;28;19928;-67
2023/01/09 07:06:38;;;;;;;;;;;6.60;99.90;;;;;;5093393;28;20323;-67
2023/01/09 07:09:06;;;;;;;;;;;6.60;99.90;;;;;;5093558;28;20372;-67
2023/01/09 07:11:34;;;;;;;;;;;6.60;99.90;;;;;;5092647;28;20369;-67
2023/01/09 07:14:01;;;;;;;;;;;6.70;99.90;;;;;;5100529;28;20137;-67
2023/01/09 07:16:29;;;;;;;;;;;6.70;99.90;;;;;;5093254;28;19924;-67
2023/01/09 07:18:58;;;;;;;;;;;6.70;99.90;;;;;;5093187;28;19928;-68
2023/01/09 07:21:26;;;;;;;;;;;6.70;99.90;;;;;;5095293;28;19930;-67
2023/01/09 07:23:54;;;;;;;;;;;6.70;99.90;;;;;;5101261;28;19927;-67
2023/01/09 07:26:21;;;;;;;;;;;6.70;99.90;;;;;;5113074;28;19923;-67
2023/01/09 07:28:49;;;;;;;;;;;6.70;99.90;;;;;;5113561;28;19959;-67
2023/01/09 07:31:17;;;;;;;;;;;6.70;99.90;;;;;;5112378;28;19930;-67
2023/01/09 07:33:45;;;;;;;;;;;6.70;99.90;;;;;;5113499;28;19924;-67
2023/01/09 07:36:14;;;;;;;;;;;6.70;99.90;;;;;;5110784;28;20023;-67
2023/01/09 07:38:41;;;;;;;;;;;6.80;99.90;;;;;;5092803;28;20378;-67
2023/01/09 07:41:09;;;;;;;;;;;6.80;99.90;;;;;;5091988;28;20459;-67
2023/01/09 07:43:38;;;;;;;;;;;6.80;99.90;;;;;;5092928;28;19924;-67
2023/01/09 07:46:05;;;;;;;;;;;6.80;99.90;;;;;;5091937;28;19930;-67
2023/01/09 07:48:33;;;;;;;;;;;6.90;99.90;;;;;;5092760;28;20424;-67
2023/01/09 07:51:01;;;;;;;;;;;6.80;99.90;;;;;;5093314;28;19964;-67
2023/01/09 07:53:30;;;;;;;;;;;6.90;99.90;;;;;;5108242;28;20304;-67
2023/01/09 07:55:58;;;;;;;;;;;6.90;99.90;;;;;;5104178;28;19924;-67
2023/01/09 07:58:25;;;;;;;;;;;6.90;99.90;;;;;;5112568;28;19924;-67
2023/01/09 08:00:53;;;;;;;;;;;6.90;99.90;;;;;;5112393;28;19946;-68
2023/01/09 08:03:21;;;;;;;;;;;6.90;99.90;;;;;;5112860;28;19924;-67
2023/01/09 08:05:48;;;;;;;;;;;6.90;99.90;;;;;;5112526;28;19923;-67
2023/01/09 08:08:18;;;;;;;;;;;6.90;99.90;;;;;;5112253;28;20014;-67
2023/01/09 08:10:47;;;;;;;;;;;6.90;99.90;;;;;;5111957;28;19980;-67
2023/01/09 08:13:14;;;;;;;;;;;6.90;99.90;;;;;;5112644;28;19930;-67
2023/01/09 08:15:42;;;;;;;;;;;6.90;99.90;;;;;;5112427;28;19924;-68
2023/01/09 08:18:10;;;;;;;;;;;6.90;99.90;;;;;;5112415;28;20122;-67
2023/01/09 08:20:38;;;;;;;;;;;6.90;99.90;;;;;;5109755;28;19928;-67
2023/01/09 08:23:05;;;;;;;;;;;6.90;99.90;;;;;;5110444;28;19974;-67
2023/01/09 08:25:33;;;;;;;;;;;6.90;99.90;;;;;;5108457;28;19931;-67
2023/01/09 08:28:02;;;;;;;;;;;7.00;99.90;;;;;;5099948;28;20014;-67
2023/01/09 08:30:30;;;;;;;;;;;7.00;99.90;;;;;;5110822;27;19927;-67
2023/01/09 08:32:57;;;;;;;;;;;7.00;99.90;;;;;;5105414;28;19928;-67
2023/01/09 08:35:25;;;;;;;;;;;7.10;99.90;;;;;;5102298;27;19973;-67
2023/01/09 08:37:53;;;;;;;;;;;7.10;99.90;;;;;;5089361;28;19930;-66
2023/01/09 08:40:20;;;;;;;;;;;7.10;99.90;;;;;;5100751;28;20463;-66
2023/01/09 08:48:20;;;;;;;;;;;7.40;99.90;;;;;;5104564;28;19963;-66
2023/01/09 08:50:47;;;;;;;;;;;7.50;99.90;;;;;;5102082;28;19943;-66
2023/01/09 08:53:15;;;;;;;;;;;7.50;99.90;;;;;;5102540;28;19938;-66
2023/01/09 08:55:43;;;;;;;;;;;7.50;99.90;;;;;;5105913;28;19931;-66
2023/01/09 08:58:11;;;;;;;;;;;7.50;99.90;;;;;;5108250;28;20297;-66
2023/01/09 09:00:40;;;;;;;;;;;7.60;99.90;;;;;;5108149;28;20292;-66
2023/01/09 09:03:08;;;;;;;;;;;7.80;99.90;;;;;;5108327;28;20411;-65
2023/01/09 09:05:36;;;;;;;;;;;7.80;99.90;;;;;;5104963;28;19928;-64
2023/01/09 09:08:05;;;;;;;;;;;8.00;99.90;;;;;;5106194;28;19951;-65
2023/01/09 09:10:32;;;;;;;;;;;8.10;99.90;;;;;;5109169;28;19924;-65
2023/01/09 09:13:00;;;;;;;;;;;8.00;99.90;;;;;;5106641;28;19973;-66
2023/01/09 09:15:28;;;;;;;;;;;7.90;99.90;;;;;;5108293;28;19924;-65
2023/01/09 09:17:57;;;;;;;;;;;7.70;99.90;;;;;;5110633;28;19947;-64
2023/01/09 09:20:26;;;;;;;;;;;7.80;99.90;;;;;;5103428;28;20308;-65
2023/01/09 09:22:54;;;;;;;;;;;7.70;99.90;;;;;;5105272;28;20311;-64
2023/01/09 09:25:22;;;;;;;;;;;7.70;99.90;;;;;;5106634;28;19924;-65
2023/01/09 09:27:50;;;;;;;;;;;7.70;99.90;;;;;;5101493;28;19935;-65
2023/01/09 09:30:19;;;;;;;;;;;7.70;99.90;;;;;;5105143;28;19928;-65
2023/01/09 09:32:47;;;;;;;;;;;7.80;99.90;;;;;;5106826;28;19932;-64
2023/01/09 09:35:17;;;;;;;;;;;7.80;99.90;;;;;;5104293;28;20010;-64
2023/01/09 09:37:52;;;;;;;;;;;7.70;99.90;;;;;;5104721;28;19932;-66
2023/01/09 09:40:23;;;;;;;;;;;7.60;99.90;;;;;;5107438;28;19924;-67
2023/01/09 09:45:59;;;;;;;;;;;7.50;99.90;;;;;;5109647;28;19934;-66
2023/01/09 09:48:32;;;;;;;;;;;7.40;99.90;;;;;;5110294;28;20023;-66
2023/01/09 09:51:09;;;;;;;;;;;7.40;99.90;;;;;;5109082;28;19953;-66
2023/01/09 09:53:39;;;;;;;;;;;7.30;99.90;;;;;;5088089;28;20014;-66
2023/01/09 09:56:10;;;;;;;;;;;7.20;99.90;;;;;;5090771;28;20380;-66
2023/01/09 09:58:39;;;;;;;;;;;7.20;99.90;;;;;;5095044;28;20026;-65
2023/01/09 10:01:07;;;;;;;;;;;7.10;99.90;;;;;;5093485;28;20018;-66
2023/01/09 10:03:37;;;;;;;;;;;7.20;99.90;;;;;;5092506;28;19967;-66
2023/01/09 10:06:08;;;;;;;;;;;7.20;99.90;;;;;;5083097;28;19981;-66
2023/01/09 10:08:39;;;;;;;;;;;7.20;99.90;;;;;;5091830;28;19956;-65
2023/01/09 10:11:12;;;;;;;;;;;7.20;99.90;;;;;;5091241;28;20385;-66
2023/01/09 10:16:31;;;;;;;;;;;7.30;99.90;;;;;;5083776;28;19928;-65
2023/01/09 10:19:05;;;;;;;;;;;7.30;99.90;;;;;;5078830;28;19928;-66
2023/01/09 10:21:36;;;;;;;;;;;7.30;99.90;;;;;;5083769;28;20060;-67
2023/01/09 10:24:09;;;;;;;;;;;7.30;99.90;;;;;;5087006;28;20015;-65
2023/01/09 10:26:40;;;;;;;;;;;7.40;99.90;;;;;;5084352;28;19928;-65
2023/01/09 10:29:21;;;;;;;;;;;7.40;99.90;;;;;;5083492;28;20069;-66
2023/01/09 10:31:56;;;;;;;;;;;7.30;99.90;;;;;;5082255;28;20316;-66
2023/01/09 10:34:33;;;;;;;;;;;7.30;99.90;;;;;;5082442;28;20397;-66
2023/01/09 10:37:05;;;;;;;;;;;7.30;99.90;;;;;;5083420;28;19931;-65
2023/01/09 10:39:35;;;;;;;;;;;7.30;99.90;;;;;;5086103;28;19924;-66
2023/01/09 10:42:10;;;;;;;;;;;7.30;99.90;;;;;;5083934;28;20385;-65
2023/01/09 10:44:42;;;;;;;;;;;7.30;99.90;;;;;;5083504;28;20141;-65
2023/01/09 10:47:14;;;;;;;;;;;7.30;99.90;;;;;;5083327;28;19935;-66
2023/01/09 10:49:41;;;;;;;;;;;7.30;99.90;;;;;;5086375;28;20026;-66
2023/01/09 10:52:15;;;;;;;;;;;7.30;99.90;;;;;;5090687;28;19928;-67
2023/01/09 10:54:46;;;;;;;;;;;7.30;99.90;;;;;;5109689;28;19978;-66
2023/01/09 10:57:15;;;;;;;;;;;7.40;99.90;;;;;;5105405;28;20019;-66
2023/01/09 10:59:43;;;;;;;;;;;7.40;99.90;;;;;;5104299;27;20018;-65
2023/01/09 11:02:20;;;;;;;;;;;7.40;99.90;;;;;;5104528;28;19930;-65
2023/01/09 11:04:48;;;;;;;;;;;7.50;99.90;;;;;;5103285;28;19963;-67
2023/01/09 11:07:18;;;;;;;;;;;7.60;99.90;;;;;;5103916;28;19924;-65
2023/01/09 11:09:56;;;;;;;;;;;7.60;99.90;;;;;;5104442;28;19931;-65
2023/01/09 11:12:25;;;;;;;;;;;7.80;99.90;;;;;;5112961;28;19958;-65
2023/01/09 11:14:52;;;;;;;;;;;7.90;99.90;;;;;;5113937;28;20434;-67
2023/01/09 11:17:21;;;;;;;;;;;8.00;99.90;;;;;;5105601;28;20431;-66
2023/01/09 11:20:02;;;;;;;;;;;8.10;99.90;;;;;;5102435;28;19931;-66
2023/01/09 11:22:41;;;;;;;;;;;8.20;99.90;;;;;;5105815;28;19967;-66
2023/01/09 11:25:11;;;;;;;;;;;8.30;99.90;;;;;;5106145;28;20408;-66
2023/01/09 11:27:39;;;;;;;;;;;8.50;99.90;;;;;;5106846;28;19993;-66
2023/01/09 11:30:14;;;;;;;;;;;8.80;99.90;;;;;;5104448;28;19930;-66
2023/01/09 11:32:42;;;;;;;;;;;8.80;99.90;;;;;;5104375;28;19928;-66
2023/01/09 11:35:15;;;;;;;;;;;8.70;99.90;;;;;;5107077;28;19959;-67
2023/01/09 11:37:45;;;;;;;;;;;8.70;99.90;;;;;;5108670;28;19928;-65
2023/01/09 11:40:17;;;;;;;;;;;8.80;99.90;;;;;;5100085;28;22091;-66
2023/01/09 11:43:00;;;;;;;;;;;9.10;99.90;;;;;;5106277;28;20014;-66
2023/01/09 11:45:29;;;;;;;;;;;9.30;99.90;;;;;;5107823;28;20014;-66
2023/01/09 11:47:57;;;;;;;;;;;9.80;99.90;;;;;;5103227;28;20031;-65
2023/01/09 11:50:27;;;;;;;;;;;10.10;99.90;;;;;;5101586;28;19955;-66
2023/01/09 11:53:12;;;;;;;;;;;10.00;99.90;;;;;;5131653;22;20015;-63
2023/01/09 11:55:40;;;;;;;;;;;9.90;99.90;;;;;;5101502;28;20019;-62
2023/01/09 11:58:12;;;;;;;;;;;10.20;99.90;;;;;;5102412;28;19927;-62
2023/01/09 12:00:44;;;;;;;;;;;10.50;99.90;;;;;;5108078;28;19932;-63
2023/01/09 12:03:19;;;;;;;;;;;10.10;99.90;;;;;;5098780;28;19930;-63
2023/01/09 12:05:51;;;;;;;;;;;9.80;99.90;;;;;;5086626;28;19985;-62
2023/01/09 12:08:27;;;;;;;;;;;9.40;99.90;;;;;;5083764;28;19924;-63
2023/01/09 12:11:09;;;;;;;;;;;9.00;99.90;;;;;;5079311;28;21303;-62
2023/01/09 12:13:48;;;;;;;;;;;8.80;99.90;;;;;;5084065;28;20022;-63
2023/01/09 12:16:23;;;;;;;;;;;8.60;99.90;;;;;;5085476;28;19930;-62
2023/01/09 12:18:56;;;;;;;;;;;8.50;99.90;;;;;;5087545;28;19935;-63
2023/01/09 12:21:30;;;;;;;;;;;8.40;99.90;;;;;;5083653;28;19998;-63
2023/01/09 12:24:17;;;;;;;;;;;8.30;99.90;;;;;;5087034;28;19924;-63
2023/01/09 12:26:51;;;;;;;;;;;8.30;99.90;;;;;;5086892;28;19924;-63
2023/01/09 12:29:26;;;;;;;;;;;8.20;99.90;;;;;;5087875;28;20014;-62
2023/01/09 12:32:01;;;;;;;;;;;8.20;99.90;;;;;;5086409;28;19959;-62
2023/01/09 12:34:35;;;;;;;;;;;8.10;99.90;;;;;;5083154;28;20031;-62
2023/01/09 12:37:14;;;;;;;;;;;8.10;99.90;;;;;;5084801;28;19931;-62
2023/01/09 12:39:50;;;;;;;;;;;8.10;99.90;;;;;;5087296;28;19924;-63
2023/01/09 12:42:29;;;;;;;;;;;8.10;99.90;;;;;;5084431;28;20483;-63
2023/01/09 12:44:59;;;;;;;;;;;8.20;99.90;;;;;;5082147;28;19932;-62
2023/01/09 12:47:38;;;;;;;;;;;8.20;99.90;;;;;;5086909;28;19924;-62
2023/01/09 12:50:14;;;;;;;;;;;8.40;99.90;;;;;;5084937;28;20015;-63
2023/01/09 12:52:44;;;;;;;;;;;8.40;99.90;;;;;;5084863;28;19931;-64
2023/01/09 12:55:15;;;;;;;;;;;8.50;99.90;;;;;;5087491;28;19925;-62
2023/01/09 12:57:44;;;;;;;;;;;8.60;99.90;;;;;;5085303;28;19924;-63
2023/01/09 13:00:17;;;;;;;;;;;8.80;99.90;;;;;;5085809;28;20411;-63
2023/01/09 13:02:47;;;;;;;;;;;8.90;99.90;;;;;;5082911;28;19929;-63
2023/01/09 13:05:16;;;;;;;;;;;8.90;99.90;;;;;;5082004;28;19924;-62
2023/01/09 13:07:46;;;;;;;;;;;8.90;99.90;;;;;;5091354;28;19985;-63
2023/01/09 13:10:18;;;;;;;;;;;8.90;99.90;;;;;;5090765;28;20435;-63
2023/01/09 13:12:47;;;;;;;;;;;8.80;99.90;;;;;;5082894;28;20398;-65
2023/01/09 13:15:22;;;;;;;;;;;8.70;99.90;;;;;;5080603;28;20054;-64
2023/01/09 13:17:51;;;;;;;;;;;8.70;99.90;;;;;;5081557;28;19924;-63
2023/01/09 13:20:20;;;;;;;;;;;8.70;99.90;;;;;;5083872;28;20007;-63
2023/01/09 13:22:51;;;;;;;;;;;8.60;99.90;;;;;;5084397;28;19939;-62
2023/01/09 13:25:33;;;;;;;;;;;8.60;99.90;;;;;;5086867;28;20019;-63
2023/01/09 13:28:05;;;;;;;;;;;8.60;99.90;;;;;;5080250;28;20420;-62
2023/01/09 13:30:41;;;;;;;;;;;8.50;99.90;;;;;;5083615;28;19971;-62
2023/01/09 13:33:14;;;;;;;;;;;8.50;99.90;;;;;;5084237;28;20027;-62
2023/01/09 13:35:49;;;;;;;;;;;8.60;99.90;;;;;;5087234;28;19924;-62
2023/01/09 13:38:17;;;;;;;;;;;8.60;99.90;;;;;;5083165;28;19934;-63
2023/01/09 13:40:45;;;;;;;;;;;8.60;99.90;;;;;;5082267;28;19938;-62
2023/01/09 13:43:15;;;;;;;;;;;8.60;99.90;;;;;;5088830;28;20715;-63
2023/01/09 13:45:43;;;;;;;;;;;8.60;99.90;;;;;;5088784;28;19924;-63
2023/01/09 13:48:24;;;;;;;;;;;8.40;99.90;;;;;;5086592;28;20435;-62
2023/01/09 13:50:54;;;;;;;;;;;8.40;99.90;;;;;;5089252;28;20366;-63
2023/01/09 13:53:40;;;;;;;;;;;8.40;99.90;;;;;;5090487;28;19956;-63
2023/01/09 13:56:08;;;;;;;;;;;8.30;99.90;;;;;;5081101;28;19955;-62
2023/01/09 13:58:54;;;;;;;;;;;8.20;99.90;;;;;;5090399;28;20019;-63
2023/01/09 14:01:43;;;;;;;;;;;8.20;99.90;;;;;;5088730;28;19931;-63
2023/01/09 14:04:27;;;;;;;;;;;8.20;99.90;;;;;;5086680;28;20419;-63
2023/01/09 14:07:15;;;;;;;;;;;8.20;99.90;;;;;;5090702;28;20010;-62
2023/01/09 14:09:46;;;;;;;;;;;8.20;99.90;;;;;;5087333;28;19940;-62
2023/01/09 14:12:15;;;;;;;;;;;8.20;99.90;;;;;;5089236;28;20054;-62
2023/01/09 14:14:44;;;;;;;;;;;8.20;99.90;;;;;;5086398;28;19938;-63
2023/01/09 14:17:18;;;;;;;;;;;8.20;99.90;;;;;;5082851;28;19924;-63
2023/01/09 14:19:46;;;;;;;;;;;8.10;99.90;;;;;;5088160;28;20343;-62
2023/01/09 14:22:23;;;;;;;;;;;8.10;99.90;;;;;;5090343;28;19927;-62
2023/01/09 14:24:53;;;;;;;;;;;8.00;99.90;;;;;;5086415;28;19932;-63
2023/01/09 14:27:39;;;;;;;;;;;8.00;99.90;;;;;;5089027;28;20030;-62
2023/01/09 14:30:26;;;;;;;;;;;8.00;99.90;;;;;;5087468;28;20565;-62
2023/01/09 14:32:59;;;;;;;;;;;8.00;99.90;;;;;;5088112;28;19930;-62
2023/01/09 14:35:28;;;;;;;;;;;7.90;99.90;;;;;;5086387;28;19935;-62
2023/01/09 14:38:13;;;;;;;;;;;7.90;99.90;;;;;;5088938;28;20012;-62
2023/01/09 14:40:45;;;;;;;;;;;7.90;99.90;;;;;;5085684;28;20351;-63
2023/01/09 14:43:15;;;;;;;;;;;7.90;99.90;;;;;;5083860;28;19932;-62
2023/01/09 14:45:44;;;;;;;;;;;7.80;99.90;;;;;;5082399;28;19924;-62
2023/01/09 14:48:13;;;;;;;;;;;7.80;99.90;;;;;;5086874;28;19928;-63
2023/01/09 14:50:43;;;;;;;;;;;7.80;99.90;;;;;;5084833;28;19932;-62
2023/01/09 14:53:13;;;;;;;;;;;7.80;99.90;;;;;;5085928;28;20462;-62
2023/01/09 14:55:49;;;;;;;;;;;7.70;99.90;;;;;;5083230;28;20011;-63
2023/01/09 14:58:21;;;;;;;;;;;7.70;99.90;;;;;;5083361;28;20358;-62
2023/01/09 15:00:52;;;;;;;;;;;7.60;99.90;;;;;;5082894;28;19924;-63
2023/01/09 15:03:22;;;;;;;;;;;7.70;99.90;;;;;;5086048;28;19924;-62